sensor_id;sensor_type;location;lat;lon;timestamp;temperature;humidity
13049;DHT22;6591;51.446;5.404;2023-06-10T00:00:18;24.90;61.90
13049;DHT22;6591;51.446;5.404;2023-06-10T00:02:45;24.90;61.80
13049;DHT22;6591;51.446;5.404;2023-06-10T00:05:12;24.80;61.80
13049;DHT22;6591;51.446;5.404;2023-06-10T00:07:39;24.80;61.70
13049;DHT22;6591;51.446;5.404;2023-06-10T00:10:08;24.80;62.00
13049;DHT22;6591;51.446;5.404;2023-06-10T00:12:37;24.70;61.90
13049;DHT22;6591;51.446;5.404;2023-06-10T00:15:05;24.70;62.00
13049;DHT22;6591;51.446;5.404;2023-06-10T00:17:34;24.60;62.20
13049;DHT22;6591;51.446;5.404;2023-06-10T00:20:01;24.60;62.20
13049;DHT22;6591;51.446;5.404;2023-06-10T00:22:31;24.50;62.20
13049;DHT22;6591;51.446;5.404;2023-06-10T00:24:59;24.50;62.50
13049;DHT22;6591;51.446;5.404;2023-06-10T00:27:26;24.50;62.50
13049;DHT22;6591;51.446;5.404;2023-06-10T00:29:59;24.40;62.70
13049;DHT22;6591;51.446;5.404;2023-06-10T00:32:26;24.40;63.10
13049;DHT22;6591;51.446;5.404;2023-06-10T00:34:54;24.30;63.00
13049;DHT22;6591;51.446;5.404;2023-06-10T00:37:21;24.30;63.30
13049;DHT22;6591;51.446;5.404;2023-06-10T00:39:49;24.30;63.30
13049;DHT22;6591;51.446;5.404;2023-06-10T00:42:16;24.20;63.40
13049;DHT22;6591;51.446;5.404;2023-06-10T00:44:43;24.20;63.60
13049;DHT22;6591;51.446;5.404;2023-06-10T00:47:10;24.10;63.70
13049;DHT22;6591;51.446;5.404;2023-06-10T00:49:37;24.10;63.60
13049;DHT22;6591;51.446;5.404;2023-06-10T00:52:06;24.10;64.60
13049;DHT22;6591;51.446;5.404;2023-06-10T00:54:33;24.00;64.50
13049;DHT22;6591;51.446;5.404;2023-06-10T00:57:01;24.00;64.30
13049;DHT22;6591;51.446;5.404;2023-06-10T00:59:29;24.00;64.30
13049;DHT22;6591;51.446;5.404;2023-06-10T01:01:57;23.90;64.80
13049;DHT22;6591;51.446;5.404;2023-06-10T01:04:24;23.90;64.80
13049;DHT22;6591;51.446;5.404;2023-06-10T01:10:29;23.80;65.40
13049;DHT22;6591;51.446;5.404;2023-06-10T01:13:02;23.70;65.70
13049;DHT22;6591;51.446;5.404;2023-06-10T01:15:31;23.60;66.10
13049;DHT22;6591;51.446;5.404;2023-06-10T01:18:04;23.60;65.30
13049;DHT22;6591;51.446;5.404;2023-06-10T01:20:39;23.50;65.80
13049;DHT22;6591;51.446;5.404;2023-06-10T01:23:08;23.50;65.80
13049;DHT22;6591;51.446;5.404;2023-06-10T01:25:41;23.40;65.90
13049;DHT22;6591;51.446;5.404;2023-06-10T01:28:21;23.40;66.30
13049;DHT22;6591;51.446;5.404;2023-06-10T01:31:17;23.30;67.00
13049;DHT22;6591;51.446;5.404;2023-06-10T01:33:51;23.20;67.50
13049;DHT22;6591;51.446;5.404;2023-06-10T01:36:21;23.20;67.20
13049;DHT22;6591;51.446;5.404;2023-06-10T01:38:51;23.20;66.90
13049;DHT22;6591;51.446;5.404;2023-06-10T01:41:20;23.10;66.90
13049;DHT22;6591;51.446;5.404;2023-06-10T01:43:49;23.00;67.30
13049;DHT22;6591;51.446;5.404;2023-06-10T01:46:16;22.90;67.00
13049;DHT22;6591;51.446;5.404;2023-06-10T01:48:47;22.90;67.10
13049;DHT22;6591;51.446;5.404;2023-06-10T01:51:15;22.80;67.30
13049;DHT22;6591;51.446;5.404;2023-06-10T01:53:42;22.70;67.50
13049;DHT22;6591;51.446;5.404;2023-06-10T01:56:09;22.70;67.60
13049;DHT22;6591;51.446;5.404;2023-06-10T01:58:36;22.70;68.00
13049;DHT22;6591;51.446;5.404;2023-06-10T02:01:03;22.50;68.10
13049;DHT22;6591;51.446;5.404;2023-06-10T02:03:30;22.50;68.30
13049;DHT22;6591;51.446;5.404;2023-06-10T02:05:58;22.40;68.70
13049;DHT22;6591;51.446;5.404;2023-06-10T02:08:25;22.40;68.80
13049;DHT22;6591;51.446;5.404;2023-06-10T02:10:54;22.30;70.10
13049;DHT22;6591;51.446;5.404;2023-06-10T02:13:21;22.20;69.50
13049;DHT22;6591;51.446;5.404;2023-06-10T02:15:53;22.20;69.60
13049;DHT22;6591;51.446;5.404;2023-06-10T02:18:20;22.10;69.70
13049;DHT22;6591;51.446;5.404;2023-06-10T02:20:48;22.10;69.60
13049;DHT22;6591;51.446;5.404;2023-06-10T02:23:15;22.00;70.10
13049;DHT22;6591;51.446;5.404;2023-06-10T02:25:42;22.00;70.00
13049;DHT22;6591;51.446;5.404;2023-06-10T02:28:09;21.90;70.10
13049;DHT22;6591;51.446;5.404;2023-06-10T02:30:39;21.90;70.80
13049;DHT22;6591;51.446;5.404;2023-06-10T02:33:08;21.80;70.80
13049;DHT22;6591;51.446;5.404;2023-06-10T02:35:40;21.80;71.00
13049;DHT22;6591;51.446;5.404;2023-06-10T02:38:08;21.70;70.90
13049;DHT22;6591;51.446;5.404;2023-06-10T02:40:35;21.70;71.00
13049;DHT22;6591;51.446;5.404;2023-06-10T02:43:02;21.50;70.90
13049;DHT22;6591;51.446;5.404;2023-06-10T02:45:31;21.50;71.60
13049;DHT22;6591;51.446;5.404;2023-06-10T02:48:01;21.50;71.20
13049;DHT22;6591;51.446;5.404;2023-06-10T02:50:29;21.50;71.90
13049;DHT22;6591;51.446;5.404;2023-06-10T02:53:04;21.40;71.70
13049;DHT22;6591;51.446;5.404;2023-06-10T02:55:33;21.40;72.30
13049;DHT22;6591;51.446;5.404;2023-06-10T02:58:05;21.30;72.30
13049;DHT22;6591;51.446;5.404;2023-06-10T03:00:34;21.30;72.70
13049;DHT22;6591;51.446;5.404;2023-06-10T03:03:03;21.20;73.30
13049;DHT22;6591;51.446;5.404;2023-06-10T03:05:39;21.20;73.10
13049;DHT22;6591;51.446;5.404;2023-06-10T03:08:07;21.20;73.10
13049;DHT22;6591;51.446;5.404;2023-06-10T03:10:37;21.10;73.80
13049;DHT22;6591;51.446;5.404;2023-06-10T03:13:04;21.10;73.90
13049;DHT22;6591;51.446;5.404;2023-06-10T03:15:33;21.10;74.10
13049;DHT22;6591;51.446;5.404;2023-06-10T03:18:04;21.10;74.30
13049;DHT22;6591;51.446;5.404;2023-06-10T03:20:32;21.00;74.80
13049;DHT22;6591;51.446;5.404;2023-06-10T03:23:06;20.90;75.30
13049;DHT22;6591;51.446;5.404;2023-06-10T03:25:34;20.90;75.40
13049;DHT22;6591;51.446;5.404;2023-06-10T03:28:01;20.80;75.40
13049;DHT22;6591;51.446;5.404;2023-06-10T03:30:28;20.80;75.70
13049;DHT22;6591;51.446;5.404;2023-06-10T03:32:56;20.80;75.60
13049;DHT22;6591;51.446;5.404;2023-06-10T03:35:26;20.80;76.00
13049;DHT22;6591;51.446;5.404;2023-06-10T03:37:53;20.80;76.20
13049;DHT22;6591;51.446;5.404;2023-06-10T03:40:20;20.70;76.20
13049;DHT22;6591;51.446;5.404;2023-06-10T03:42:47;20.70;76.40
13049;DHT22;6591;51.446;5.404;2023-06-10T03:45:17;20.70;76.40
13049;DHT22;6591;51.446;5.404;2023-06-10T03:47:45;20.70;76.70
13049;DHT22;6591;51.446;5.404;2023-06-10T03:50:18;20.70;76.70
13049;DHT22;6591;51.446;5.404;2023-06-10T03:52:45;20.70;76.60
13049;DHT22;6591;51.446;5.404;2023-06-10T03:55:15;21.10;77.70
13049;DHT22;6591;51.446;5.404;2023-06-10T03:57:44;20.60;77.30
13049;DHT22;6591;51.446;5.404;2023-06-10T04:00:12;20.60;77.30
13049;DHT22;6591;51.446;5.404;2023-06-10T04:02:43;20.60;77.50
13049;DHT22;6591;51.446;5.404;2023-06-10T04:05:23;20.60;77.80
13049;DHT22;6591;51.446;5.404;2023-06-10T04:07:51;20.60;78.40
13049;DHT22;6591;51.446;5.404;2023-06-10T04:10:19;20.60;78.20
13049;DHT22;6591;51.446;5.404;2023-06-10T04:12:46;20.60;78.90
13049;DHT22;6591;51.446;5.404;2023-06-10T04:15:13;20.60;79.10
13049;DHT22;6591;51.446;5.404;2023-06-10T04:17:41;20.70;79.20
13049;DHT22;6591;51.446;5.404;2023-06-10T04:20:11;20.70;78.90
13049;DHT22;6591;51.446;5.404;2023-06-10T04:22:42;20.70;79.10
13049;DHT22;6591;51.446;5.404;2023-06-10T04:25:10;20.70;79.70
13049;DHT22;6591;51.446;5.404;2023-06-10T04:27:39;20.70;80.00
13049;DHT22;6591;51.446;5.404;2023-06-10T04:30:07;20.70;79.90
13049;DHT22;6591;51.446;5.404;2023-06-10T04:32:36;20.80;80.80
13049;DHT22;6591;51.446;5.404;2023-06-10T04:35:06;20.80;80.50
13049;DHT22;6591;51.446;5.404;2023-06-10T04:37:35;20.80;80.70
13049;DHT22;6591;51.446;5.404;2023-06-10T04:40:03;20.90;81.20
13049;DHT22;6591;51.446;5.404;2023-06-10T04:42:31;20.90;81.20
13049;DHT22;6591;51.446;5.404;2023-06-10T04:44:58;20.90;81.60
13049;DHT22;6591;51.446;5.404;2023-06-10T04:47:26;21.00;81.70
13049;DHT22;6591;51.446;5.404;2023-06-10T04:49:53;21.00;81.50
13049;DHT22;6591;51.446;5.404;2023-06-10T04:52:20;21.10;81.20
13049;DHT22;6591;51.446;5.404;2023-06-10T04:54:48;21.20;81.70
13049;DHT22;6591;51.446;5.404;2023-06-10T04:57:15;21.10;81.40
13049;DHT22;6591;51.446;5.404;2023-06-10T04:59:42;21.30;81.90
13049;DHT22;6591;51.446;5.404;2023-06-10T05:02:09;21.20;81.50
13049;DHT22;6591;51.446;5.404;2023-06-10T05:04:36;21.30;81.80
13049;DHT22;6591;51.446;5.404;2023-06-10T05:07:04;21.50;82.00
13049;DHT22;6591;51.446;5.404;2023-06-10T05:09:31;21.40;81.40
13049;DHT22;6591;51.446;5.404;2023-06-10T05:11:59;21.50;81.70
13049;DHT22;6591;51.446;5.404;2023-06-10T05:14:26;21.50;81.50
13049;DHT22;6591;51.446;5.404;2023-06-10T05:16:54;21.60;81.40
13049;DHT22;6591;51.446;5.404;2023-06-10T05:19:21;21.70;81.70
13049;DHT22;6591;51.446;5.404;2023-06-10T05:21:48;21.70;81.40
13049;DHT22;6591;51.446;5.404;2023-06-10T05:24:15;21.80;81.40
13049;DHT22;6591;51.446;5.404;2023-06-10T05:26:42;21.90;81.30
13049;DHT22;6591;51.446;5.404;2023-06-10T05:29:09;22.50;81.50
13049;DHT22;6591;51.446;5.404;2023-06-10T05:31:37;22.00;81.00
13049;DHT22;6591;51.446;5.404;2023-06-10T05:34:04;22.10;81.00
13049;DHT22;6591;51.446;5.404;2023-06-10T05:36:31;22.30;80.80
13049;DHT22;6591;51.446;5.404;2023-06-10T05:38:59;22.30;80.50
13049;DHT22;6591;51.446;5.404;2023-06-10T05:41:26;22.40;80.40
13049;DHT22;6591;51.446;5.404;2023-06-10T05:43:54;22.60;80.30
13049;DHT22;6591;51.446;5.404;2023-06-10T05:46:21;22.70;80.20
13049;DHT22;6591;51.446;5.404;2023-06-10T05:48:48;22.80;79.90
13049;DHT22;6591;51.446;5.404;2023-06-10T05:51:15;22.90;79.70
13049;DHT22;6591;51.446;5.404;2023-06-10T05:53:42;23.00;79.40
13049;DHT22;6591;51.446;5.404;2023-06-10T05:56:09;23.20;79.50
13049;DHT22;6591;51.446;5.404;2023-06-10T05:58:36;23.20;78.80
13049;DHT22;6591;51.446;5.404;2023-06-10T06:01:03;23.50;78.60
13049;DHT22;6591;51.446;5.404;2023-06-10T06:03:30;23.50;78.40
13049;DHT22;6591;51.446;5.404;2023-06-10T06:05:58;23.60;78.20
13049;DHT22;6591;51.446;5.404;2023-06-10T06:08:25;23.70;77.90
13049;DHT22;6591;51.446;5.404;2023-06-10T06:10:52;23.90;77.60
13049;DHT22;6591;51.446;5.404;2023-06-10T06:13:19;24.10;77.20
13049;DHT22;6591;51.446;5.404;2023-06-10T06:15:46;23.90;76.90
13049;DHT22;6591;51.446;5.404;2023-06-10T06:18:13;24.10;76.70
13049;DHT22;6591;51.446;5.404;2023-06-10T06:20:40;24.30;76.60
13049;DHT22;6591;51.446;5.404;2023-06-10T06:23:07;24.40;76.30
13049;DHT22;6591;51.446;5.404;2023-06-10T06:25:37;24.60;76.00
13049;DHT22;6591;51.446;5.404;2023-06-10T06:28:10;24.70;75.70
13049;DHT22;6591;51.446;5.404;2023-06-10T06:30:37;24.80;75.00
13049;DHT22;6591;51.446;5.404;2023-06-10T06:33:04;24.90;74.40
13049;DHT22;6591;51.446;5.404;2023-06-10T06:35:33;25.10;73.90
13049;DHT22;6591;51.446;5.404;2023-06-10T06:38:00;25.20;73.50
13049;DHT22;6591;51.446;5.404;2023-06-10T06:40:29;25.20;73.10
13049;DHT22;6591;51.446;5.404;2023-06-10T06:42:56;25.30;73.30
13049;DHT22;6591;51.446;5.404;2023-06-10T06:45:46;25.40;73.30
13049;DHT22;6591;51.446;5.404;2023-06-10T06:48:13;25.60;73.20
13049;DHT22;6591;51.446;5.404;2023-06-10T06:50:40;25.70;72.50
13049;DHT22;6591;51.446;5.404;2023-06-10T06:53:08;25.90;72.20
13049;DHT22;6591;51.446;5.404;2023-06-10T06:55:36;26.00;71.50
13049;DHT22;6591;51.446;5.404;2023-06-10T06:58:04;26.10;70.80
13049;DHT22;6591;51.446;5.404;2023-06-10T07:00:32;26.30;70.70
13049;DHT22;6591;51.446;5.404;2023-06-10T07:02:59;25.70;69.90
13049;DHT22;6591;51.446;5.404;2023-06-10T07:05:26;26.40;70.30
13049;DHT22;6591;51.446;5.404;2023-06-10T07:07:54;26.50;70.30
13049;DHT22;6591;51.446;5.404;2023-06-10T07:10:25;26.60;70.10
13049;DHT22;6591;51.446;5.404;2023-06-10T07:12:53;26.80;70.00
13049;DHT22;6591;51.446;5.404;2023-06-10T07:15:20;27.00;69.20
13049;DHT22;6591;51.446;5.404;2023-06-10T07:17:47;27.20;68.40
13049;DHT22;6591;51.446;5.404;2023-06-10T07:20:15;27.40;67.60
13049;DHT22;6591;51.446;5.404;2023-06-10T07:22:42;27.50;67.80
13049;DHT22;6591;51.446;5.404;2023-06-10T07:25:09;27.60;67.50
13049;DHT22;6591;51.446;5.404;2023-06-10T07:27:37;27.80;66.80
13049;DHT22;6591;51.446;5.404;2023-06-10T07:30:05;28.00;66.80
13049;DHT22;6591;51.446;5.404;2023-06-10T07:32:35;28.10;65.90
13049;DHT22;6591;51.446;5.404;2023-06-10T07:35:02;28.30;66.00
13049;DHT22;6591;51.446;5.404;2023-06-10T07:37:30;28.50;65.40
13049;DHT22;6591;51.446;5.404;2023-06-10T07:39:57;28.60;64.40
13049;DHT22;6591;51.446;5.404;2023-06-10T07:42:24;28.70;64.30
13049;DHT22;6591;51.446;5.404;2023-06-10T07:44:51;28.80;63.70
13049;DHT22;6591;51.446;5.404;2023-06-10T07:47:18;28.90;63.50
13049;DHT22;6591;51.446;5.404;2023-06-10T07:49:47;29.00;63.40
13049;DHT22;6591;51.446;5.404;2023-06-10T07:52:14;29.10;63.70
13049;DHT22;6591;51.446;5.404;2023-06-10T07:54:41;29.30;63.40
13049;DHT22;6591;51.446;5.404;2023-06-10T07:57:09;29.60;62.40
13049;DHT22;6591;51.446;5.404;2023-06-10T07:59:36;29.80;62.00
13049;DHT22;6591;51.446;5.404;2023-06-10T08:02:05;30.10;61.20
13049;DHT22;6591;51.446;5.404;2023-06-10T08:04:32;30.30;59.30
13049;DHT22;6591;51.446;5.404;2023-06-10T08:07:02;30.50;58.60
13049;DHT22;6591;51.446;5.404;2023-06-10T08:09:29;30.60;58.90
13049;DHT22;6591;51.446;5.404;2023-06-10T08:11:56;30.70;58.80
13049;DHT22;6591;51.446;5.404;2023-06-10T08:14:24;30.90;58.80
13049;DHT22;6591;51.446;5.404;2023-06-10T08:16:51;31.20;58.50
13049;DHT22;6591;51.446;5.404;2023-06-10T08:19:18;31.40;57.80
13049;DHT22;6591;51.446;5.404;2023-06-10T08:21:45;31.70;57.50
13049;DHT22;6591;51.446;5.404;2023-06-10T08:24:12;31.80;56.30
13049;DHT22;6591;51.446;5.404;2023-06-10T08:26:39;31.90;55.70
13049;DHT22;6591;51.446;5.404;2023-06-10T08:29:06;31.90;54.70
13049;DHT22;6591;51.446;5.404;2023-06-10T08:31:33;31.90;54.60
13049;DHT22;6591;51.446;5.404;2023-06-10T08:34:00;31.90;55.00
13049;DHT22;6591;51.446;5.404;2023-06-10T08:36:27;32.00;54.90
13049;DHT22;6591;51.446;5.404;2023-06-10T08:38:55;32.10;54.30
13049;DHT22;6591;51.446;5.404;2023-06-10T08:41:23;32.10;54.40
13049;DHT22;6591;51.446;5.404;2023-06-10T08:44:20;32.30;54.10
13049;DHT22;6591;51.446;5.404;2023-06-10T08:46:59;32.40;53.50
13049;DHT22;6591;51.446;5.404;2023-06-10T08:49:30;32.60;53.50
13049;DHT22;6591;51.446;5.404;2023-06-10T08:52:02;32.80;53.60
13049;DHT22;6591;51.446;5.404;2023-06-10T08:54:33;33.00;53.60
13049;DHT22;6591;51.446;5.404;2023-06-10T08:57:06;33.20;52.80
13049;DHT22;6591;51.446;5.404;2023-06-10T08:59:33;33.50;51.90
13049;DHT22;6591;51.446;5.404;2023-06-10T09:02:01;33.70;51.70
13049;DHT22;6591;51.446;5.404;2023-06-10T09:04:30;33.80;51.30
13049;DHT22;6591;51.446;5.404;2023-06-10T09:06:58;34.00;51.60
13049;DHT22;6591;51.446;5.404;2023-06-10T09:09:28;34.10;51.30
13049;DHT22;6591;51.446;5.404;2023-06-10T09:11:57;34.30;50.70
13049;DHT22;6591;51.446;5.404;2023-06-10T09:14:25;34.50;50.60
13049;DHT22;6591;51.446;5.404;2023-06-10T09:16:52;34.80;49.60
13049;DHT22;6591;51.446;5.404;2023-06-10T09:19:25;34.90;48.70
13049;DHT22;6591;51.446;5.404;2023-06-10T09:21:53;35.00;48.70
13049;DHT22;6591;51.446;5.404;2023-06-10T09:24:22;35.10;49.00
13049;DHT22;6591;51.446;5.404;2023-06-10T09:26:50;35.20;48.90
13049;DHT22;6591;51.446;5.404;2023-06-10T09:29:28;35.30;48.70
13049;DHT22;6591;51.446;5.404;2023-06-10T09:31:55;35.50;48.70
13049;DHT22;6591;51.446;5.404;2023-06-10T09:34:25;35.70;48.40
13049;DHT22;6591;51.446;5.404;2023-06-10T09:36:53;36.00;47.90
13049;DHT22;6591;51.446;5.404;2023-06-10T09:39:20;36.30;47.50
13049;DHT22;6591;51.446;5.404;2023-06-10T09:41:47;36.40;46.30
13049;DHT22;6591;51.446;5.404;2023-06-10T09:44:19;36.50;46.40
13049;DHT22;6591;51.446;5.404;2023-06-10T09:46:48;36.50;46.00
13049;DHT22;6591;51.446;5.404;2023-06-10T09:49:17;36.40;45.60
13049;DHT22;6591;51.446;5.404;2023-06-10T09:51:54;36.40;45.00
13049;DHT22;6591;51.446;5.404;2023-06-10T09:54:23;36.30;45.30
13049;DHT22;6591;51.446;5.404;2023-06-10T09:56:51;36.20;45.90
13049;DHT22;6591;51.446;5.404;2023-06-10T09:59:29;36.30;45.80
13049;DHT22;6591;51.446;5.404;2023-06-10T10:02:00;36.50;45.40
13049;DHT22;6591;51.446;5.404;2023-06-10T10:04:27;36.70;44.80
13049;DHT22;6591;51.446;5.404;2023-06-10T10:06:55;36.80;44.80
13049;DHT22;6591;51.446;5.404;2023-06-10T10:09:23;36.80;44.40
13049;DHT22;6591;51.446;5.404;2023-06-10T10:11:52;36.90;44.00
13049;DHT22;6591;51.446;5.404;2023-06-10T10:14:22;36.80;43.90
13049;DHT22;6591;51.446;5.404;2023-06-10T10:16:52;36.80;43.50
13049;DHT22;6591;51.446;5.404;2023-06-10T10:19:28;36.70;43.40
13049;DHT22;6591;51.446;5.404;2023-06-10T10:22:06;36.60;43.20
13049;DHT22;6591;51.446;5.404;2023-06-10T10:24:40;36.40;43.50
13049;DHT22;6591;51.446;5.404;2023-06-10T10:27:26;36.40;44.20
13049;DHT22;6591;51.446;5.404;2023-06-10T10:29:57;36.30;44.30
13049;DHT22;6591;51.446;5.404;2023-06-10T10:32:56;36.30;44.40
13049;DHT22;6591;51.446;5.404;2023-06-10T10:35:34;36.40;43.20
13049;DHT22;6591;51.446;5.404;2023-06-10T10:38:02;36.40;44.60
13049;DHT22;6591;51.446;5.404;2023-06-10T10:40:30;36.50;44.00
13049;DHT22;6591;51.446;5.404;2023-06-10T10:43:00;36.50;43.80
13049;DHT22;6591;51.446;5.404;2023-06-10T10:45:28;36.60;43.70
13049;DHT22;6591;51.446;5.404;2023-06-10T10:47:56;36.60;43.90
13049;DHT22;6591;51.446;5.404;2023-06-10T10:50:25;36.60;43.70
13049;DHT22;6591;51.446;5.404;2023-06-10T10:53:05;36.70;43.50
13049;DHT22;6591;51.446;5.404;2023-06-10T10:55:33;36.70;43.60
13049;DHT22;6591;51.446;5.404;2023-06-10T11:00:36;36.80;43.50
13049;DHT22;6591;51.446;5.404;2023-06-10T11:03:06;36.90;43.40
13049;DHT22;6591;51.446;5.404;2023-06-10T11:05:41;37.00;43.20
13049;DHT22;6591;51.446;5.404;2023-06-10T11:08:11;37.00;42.70
13049;DHT22;6591;51.446;5.404;2023-06-10T11:10:40;37.10;42.90
13049;DHT22;6591;51.446;5.404;2023-06-10T11:13:28;37.00;42.20
13049;DHT22;6591;51.446;5.404;2023-06-10T11:15:58;37.10;42.50
13049;DHT22;6591;51.446;5.404;2023-06-10T11:18:30;36.90;42.10
13049;DHT22;6591;51.446;5.404;2023-06-10T11:21:05;37.00;42.60
13049;DHT22;6591;51.446;5.404;2023-06-10T11:23:34;37.10;42.60
13049;DHT22;6591;51.446;5.404;2023-06-10T11:29:03;37.60;41.50
13049;DHT22;6591;51.446;5.404;2023-06-10T11:34:08;38.00;40.60
13049;DHT22;6591;51.446;5.404;2023-06-10T11:36:40;38.10;40.90
13049;DHT22;6591;51.446;5.404;2023-06-10T11:39:09;38.20;40.40
13049;DHT22;6591;51.446;5.404;2023-06-10T11:41:38;38.20;40.60
13049;DHT22;6591;51.446;5.404;2023-06-10T11:44:10;38.30;40.50
13049;DHT22;6591;51.446;5.404;2023-06-10T11:46:44;38.30;40.20
13049;DHT22;6591;51.446;5.404;2023-06-10T11:49:12;38.40;40.00
13049;DHT22;6591;51.446;5.404;2023-06-10T11:51:40;37.30;39.50
13049;DHT22;6591;51.446;5.404;2023-06-10T11:54:10;38.40;39.70
13049;DHT22;6591;51.446;5.404;2023-06-10T11:56:38;38.40;39.30
13049;DHT22;6591;51.446;5.404;2023-06-10T11:59:06;38.40;38.90
13049;DHT22;6591;51.446;5.404;2023-06-10T12:01:42;38.40;38.90
13049;DHT22;6591;51.446;5.404;2023-06-10T12:04:13;38.50;39.30
13049;DHT22;6591;51.446;5.404;2023-06-10T12:06:47;38.60;39.10
13049;DHT22;6591;51.446;5.404;2023-06-10T12:11:58;39.20;39.40
13049;DHT22;6591;51.446;5.404;2023-06-10T12:14:53;39.60;38.10
13049;DHT22;6591;51.446;5.404;2023-06-10T12:20:03;40.20;37.40
13049;DHT22;6591;51.446;5.404;2023-06-10T12:22:43;40.30;37.70
13049;DHT22;6591;51.446;5.404;2023-06-10T12:25:11;40.50;36.50
13049;DHT22;6591;51.446;5.404;2023-06-10T12:27:49;40.60;37.10
13049;DHT22;6591;51.446;5.404;2023-06-10T12:30:20;40.70;37.10
13049;DHT22;6591;51.446;5.404;2023-06-10T12:32:53;40.90;36.80
13049;DHT22;6591;51.446;5.404;2023-06-10T12:35:22;41.00;36.20
13049;DHT22;6591;51.446;5.404;2023-06-10T12:38:04;41.10;36.20
13049;DHT22;6591;51.446;5.404;2023-06-10T12:40:36;41.10;35.30
13049;DHT22;6591;51.446;5.404;2023-06-10T12:43:04;41.20;35.80
13049;DHT22;6591;51.446;5.404;2023-06-10T12:45:38;41.20;35.90
13049;DHT22;6591;51.446;5.404;2023-06-10T12:48:23;41.30;35.20
13049;DHT22;6591;51.446;5.404;2023-06-10T12:50:56;41.40;34.20
13049;DHT22;6591;51.446;5.404;2023-06-10T12:53:25;41.40;34.60
13049;DHT22;6591;51.446;5.404;2023-06-10T12:55:56;41.30;34.10
13049;DHT22;6591;51.446;5.404;2023-06-10T12:58:24;41.40;34.10
13049;DHT22;6591;51.446;5.404;2023-06-10T13:00:51;41.40;33.90
13049;DHT22;6591;51.446;5.404;2023-06-10T13:03:21;41.40;34.00
13049;DHT22;6591;51.446;5.404;2023-06-10T13:05:48;41.50;33.70
13049;DHT22;6591;51.446;5.404;2023-06-10T13:08:15;41.60;33.60
13049;DHT22;6591;51.446;5.404;2023-06-10T13:10:43;41.70;33.40
13049;DHT22;6591;51.446;5.404;2023-06-10T13:13:10;41.60;33.10
13049;DHT22;6591;51.446;5.404;2023-06-10T13:15:37;41.50;33.20
13049;DHT22;6591;51.446;5.404;2023-06-10T13:18:09;41.40;33.50
13049;DHT22;6591;51.446;5.404;2023-06-10T13:20:37;41.40;33.60
13049;DHT22;6591;51.446;5.404;2023-06-10T13:23:04;41.50;33.40
13049;DHT22;6591;51.446;5.404;2023-06-10T13:25:31;41.60;33.50
13049;DHT22;6591;51.446;5.404;2023-06-10T13:27:59;41.60;33.10
13049;DHT22;6591;51.446;5.404;2023-06-10T13:30:26;41.70;33.20
13049;DHT22;6591;51.446;5.404;2023-06-10T13:32:53;42.00;33.40
13049;DHT22;6591;51.446;5.404;2023-06-10T13:35:20;42.20;33.10
13049;DHT22;6591;51.446;5.404;2023-06-10T13:37:47;42.50;33.30
13049;DHT22;6591;51.446;5.404;2023-06-10T13:40:14;42.80;33.10
13049;DHT22;6591;51.446;5.404;2023-06-10T13:42:42;43.10;32.90
13049;DHT22;6591;51.446;5.404;2023-06-10T13:45:09;43.50;32.80
13049;DHT22;6591;51.446;5.404;2023-06-10T13:47:37;43.90;32.20
13049;DHT22;6591;51.446;5.404;2023-06-10T13:50:06;44.20;32.30
13049;DHT22;6591;51.446;5.404;2023-06-10T13:52:33;44.60;32.10
13049;DHT22;6591;51.446;5.404;2023-06-10T13:55:00;44.90;31.60
13049;DHT22;6591;51.446;5.404;2023-06-10T13:57:27;45.20;31.20
13049;DHT22;6591;51.446;5.404;2023-06-10T13:59:54;45.20;30.30
13049;DHT22;6591;51.446;5.404;2023-06-10T14:02:23;45.00;29.60
13049;DHT22;6591;51.446;5.404;2023-06-10T14:04:50;44.60;29.70
13049;DHT22;6591;51.446;5.404;2023-06-10T14:07:17;44.20;30.00
13049;DHT22;6591;51.446;5.404;2023-06-10T14:09:44;43.80;30.30
13049;DHT22;6591;51.446;5.404;2023-06-10T14:12:12;43.60;30.60
13049;DHT22;6591;51.446;5.404;2023-06-10T14:14:41;43.60;30.90
13049;DHT22;6591;51.446;5.404;2023-06-10T14:17:08;43.70;30.90
13049;DHT22;6591;51.446;5.404;2023-06-10T14:19:35;44.00;30.80
13049;DHT22;6591;51.446;5.404;2023-06-10T14:22:02;44.20;30.60
13049;DHT22;6591;51.446;5.404;2023-06-10T14:24:34;44.40;30.10
13049;DHT22;6591;51.446;5.404;2023-06-10T14:27:03;44.40;29.70
13049;DHT22;6591;51.446;5.404;2023-06-10T14:29:30;44.30;29.60
13049;DHT22;6591;51.446;5.404;2023-06-10T14:31:58;44.10;29.40
13049;DHT22;6591;51.446;5.404;2023-06-10T14:34:26;44.00;29.70
13049;DHT22;6591;51.446;5.404;2023-06-10T14:36:56;43.90;29.60
13049;DHT22;6591;51.446;5.404;2023-06-10T14:39:23;43.80;29.60
13049;DHT22;6591;51.446;5.404;2023-06-10T14:41:50;43.90;29.40
13049;DHT22;6591;51.446;5.404;2023-06-10T14:44:19;43.70;29.20
13049;DHT22;6591;51.446;5.404;2023-06-10T14:46:46;43.50;28.70
13049;DHT22;6591;51.446;5.404;2023-06-10T14:49:14;43.20;28.80
13049;DHT22;6591;51.446;5.404;2023-06-10T14:51:42;42.80;29.00
13049;DHT22;6591;51.446;5.404;2023-06-10T14:54:10;42.50;29.40
13049;DHT22;6591;51.446;5.404;2023-06-10T14:56:37;42.10;29.70
13049;DHT22;6591;51.446;5.404;2023-06-10T14:59:04;41.90;30.00
13049;DHT22;6591;51.446;5.404;2023-06-10T15:01:31;41.70;29.80
13049;DHT22;6591;51.446;5.404;2023-06-10T15:03:59;41.50;30.00
13049;DHT22;6591;51.446;5.404;2023-06-10T15:06:26;41.30;30.50
13049;DHT22;6591;51.446;5.404;2023-06-10T15:08:53;41.30;31.00
13049;DHT22;6591;51.446;5.404;2023-06-10T15:11:20;41.40;31.50
13049;DHT22;6591;51.446;5.404;2023-06-10T15:13:48;41.60;31.40
13049;DHT22;6591;51.446;5.404;2023-06-10T15:16:16;41.90;31.10
13049;DHT22;6591;51.446;5.404;2023-06-10T15:18:43;42.20;31.00
13049;DHT22;6591;51.446;5.404;2023-06-10T15:21:10;42.40;30.30
13049;DHT22;6591;51.446;5.404;2023-06-10T15:23:37;42.50;30.10
13049;DHT22;6591;51.446;5.404;2023-06-10T15:26:04;42.30;30.30
13049;DHT22;6591;51.446;5.404;2023-06-10T15:28:32;42.00;29.90
13049;DHT22;6591;51.446;5.404;2023-06-10T15:30:59;41.70;30.00
13049;DHT22;6591;51.446;5.404;2023-06-10T15:33:27;41.30;30.00
13049;DHT22;6591;51.446;5.404;2023-06-10T15:35:54;41.00;30.50
13049;DHT22;6591;51.446;5.404;2023-06-10T15:38:21;41.00;31.20
13049;DHT22;6591;51.446;5.404;2023-06-10T15:40:48;40.90;31.50
13049;DHT22;6591;51.446;5.404;2023-06-10T15:43:15;41.00;31.70
13049;DHT22;6591;51.446;5.404;2023-06-10T15:45:42;41.00;31.60
13049;DHT22;6591;51.446;5.404;2023-06-10T15:48:10;41.10;31.60
13049;DHT22;6591;51.446;5.404;2023-06-10T15:50:37;41.20;31.60
13049;DHT22;6591;51.446;5.404;2023-06-10T15:53:04;41.30;31.50
13049;DHT22;6591;51.446;5.404;2023-06-10T15:55:31;41.40;31.50
13049;DHT22;6591;51.446;5.404;2023-06-10T15:57:58;41.30;31.20
13049;DHT22;6591;51.446;5.404;2023-06-10T16:00:27;41.30;31.20
13049;DHT22;6591;51.446;5.404;2023-06-10T16:02:54;41.10;31.10
13049;DHT22;6591;51.446;5.404;2023-06-10T16:05:21;40.90;31.00
13049;DHT22;6591;51.446;5.404;2023-06-10T16:07:48;40.50;31.00
13049;DHT22;6591;51.446;5.404;2023-06-10T16:10:16;40.20;31.40
13049;DHT22;6591;51.446;5.404;2023-06-10T16:12:43;39.80;31.70